sensor_id;sensor_type;location;lat;lon;timestamp;temperature;humidity
14884;DHT22;7534;50.762;7.000;2023-03-20T00:01:22;10.80;99.90
14884;DHT22;7534;50.762;7.000;2023-03-20T00:03:50;10.90;99.90
14884;DHT22;7534;50.762;7.000;2023-03-20T00:06:19;10.80;99.90
14884;DHT22;7534;50.762;7.000;2023-03-20T00:08:48;10.70;99.90
14884;DHT22;7534;50.762;7.000;2023-03-20T00:11:31;10.80;99.90
14884;DHT22;7534;50.762;7.000;2023-03-20T00:14:00;10.90;99.90
14884;DHT22;7534;50.762;7.000;2023-03-20T00:16:34;10.80;99.90
14884;DHT22;7534;50.762;7.000;2023-03-20T00:19:02;10.70;99.90
14884;DHT22;7534;50.762;7.000;2023-03-20T00:21:29;10.80;99.90
14884;DHT22;7534;50.762;7.000;2023-03-20T00:23:57;10.80;99.90
14884;DHT22;7534;50.762;7.000;2023-03-20T00:26:26;10.70;99.90
14884;DHT22;7534;50.762;7.000;2023-03-20T00:28:56;10.70;99.90
14884;DHT22;7534;50.762;7.000;2023-03-20T00:31:29;10.70;99.90
14884;DHT22;7534;50.762;7.000;2023-03-20T00:33:58;10.80;99.90
14884;DHT22;7534;50.762;7.000;2023-03-20T00:36:26;10.80;99.90
14884;DHT22;7534;50.762;7.000;2023-03-20T00:38:52;10.80;99.90
14884;DHT22;7534;50.762;7.000;2023-03-20T00:41:28;10.80;99.90
14884;DHT22;7534;50.762;7.000;2023-03-20T00:44:16;10.70;99.90
14884;DHT22;7534;50.762;7.000;2023-03-20T00:46:52;10.60;99.90
14884;DHT22;7534;50.762;7.000;2023-03-20T00:49:26;10.60;99.90
14884;DHT22;7534;50.762;7.000;2023-03-20T00:51:55;10.60;99.90
14884;DHT22;7534;50.762;7.000;2023-03-20T00:54:21;10.50;99.90
14884;DHT22;7534;50.762;7.000;2023-03-20T00:57:11;10.60;99.90
14884;DHT22;7534;50.762;7.000;2023-03-20T01:00:04;10.50;99.90
14884;DHT22;7534;50.762;7.000;2023-03-20T01:02:30;10.60;99.90
14884;DHT22;7534;50.762;7.000;2023-03-20T01:04:56;10.50;99.90
14884;DHT22;7534;50.762;7.000;2023-03-20T01:07:22;10.50;99.90
14884;DHT22;7534;50.762;7.000;2023-03-20T01:09:48;10.50;99.90
14884;DHT22;7534;50.762;7.000;2023-03-20T01:12:14;10.50;99.90
14884;DHT22;7534;50.762;7.000;2023-03-20T01:14:41;10.60;99.90
14884;DHT22;7534;50.762;7.000;2023-03-20T01:17:18;10.50;99.90
14884;DHT22;7534;50.762;7.000;2023-03-20T01:19:45;10.50;99.90
14884;DHT22;7534;50.762;7.000;2023-03-20T01:22:12;10.40;99.90
14884;DHT22;7534;50.762;7.000;2023-03-20T01:24:38;10.40;99.90
14884;DHT22;7534;50.762;7.000;2023-03-20T01:27:11;10.50;99.90
14884;DHT22;7534;50.762;7.000;2023-03-20T01:29:39;10.50;99.90
14884;DHT22;7534;50.762;7.000;2023-03-20T01:32:13;10.70;99.90
14884;DHT22;7534;50.762;7.000;2023-03-20T01:34:40;10.70;99.90
14884;DHT22;7534;50.762;7.000;2023-03-20T01:37:12;10.70;99.90
14884;DHT22;7534;50.762;7.000;2023-03-20T01:39:41;10.70;99.90
14884;DHT22;7534;50.762;7.000;2023-03-20T01:42:07;10.60;99.90
14884;DHT22;7534;50.762;7.000;2023-03-20T01:44:36;10.60;99.90
14884;DHT22;7534;50.762;7.000;2023-03-20T01:47:10;10.60;99.90
14884;DHT22;7534;50.762;7.000;2023-03-20T01:53:22;10.50;99.90
14884;DHT22;7534;50.762;7.000;2023-03-20T01:55:52;10.60;99.90
14884;DHT22;7534;50.762;7.000;2023-03-20T01:58:26;10.60;99.90
14884;DHT22;7534;50.762;7.000;2023-03-20T02:01:00;10.60;99.90
14884;DHT22;7534;50.762;7.000;2023-03-20T02:03:26;10.60;99.90
14884;DHT22;7534;50.762;7.000;2023-03-20T02:05:54;10.50;99.90
14884;DHT22;7534;50.762;7.000;2023-03-20T02:08:29;10.60;99.90
14884;DHT22;7534;50.762;7.000;2023-03-20T02:10:59;10.60;99.90
14884;DHT22;7534;50.762;7.000;2023-03-20T02:13:28;10.60;99.90
14884;DHT22;7534;50.762;7.000;2023-03-20T02:16:05;10.60;99.90
14884;DHT22;7534;50.762;7.000;2023-03-20T02:18:36;10.70;99.90
14884;DHT22;7534;50.762;7.000;2023-03-20T02:21:25;10.70;99.90
14884;DHT22;7534;50.762;7.000;2023-03-20T02:27:43;10.60;99.90
14884;DHT22;7534;50.762;7.000;2023-03-20T02:30:47;10.60;99.90
14884;DHT22;7534;50.762;7.000;2023-03-20T02:33:47;10.50;99.90
14884;DHT22;7534;50.762;7.000;2023-03-20T02:37:18;10.40;99.90
14884;DHT22;7534;50.762;7.000;2023-03-20T02:40:24;10.40;99.90
14884;DHT22;7534;50.762;7.000;2023-03-20T02:43:17;10.30;99.90
14884;DHT22;7534;50.762;7.000;2023-03-20T02:46:02;10.30;99.90
14884;DHT22;7534;50.762;7.000;2023-03-20T02:49:33;10.30;99.90
14884;DHT22;7534;50.762;7.000;2023-03-20T02:51:49;10.20;99.90
14884;DHT22;7534;50.762;7.000;2023-03-20T02:54:39;10.30;99.90
14884;DHT22;7534;50.762;7.000;2023-03-20T02:57:30;10.20;99.90
14884;DHT22;7534;50.762;7.000;2023-03-20T03:09:23;9.90;99.90
14884;DHT22;7534;50.762;7.000;2023-03-20T03:12:00;9.80;99.90
14884;DHT22;7534;50.762;7.000;2023-03-20T03:14:40;9.70;99.90
14884;DHT22;7534;50.762;7.000;2023-03-20T03:17:12;9.70;99.90
14884;DHT22;7534;50.762;7.000;2023-03-20T03:19:49;9.70;99.90
14884;DHT22;7534;50.762;7.000;2023-03-20T03:22:18;9.70;99.90
14884;DHT22;7534;50.762;7.000;2023-03-20T03:24:48;9.80;99.90
14884;DHT22;7534;50.762;7.000;2023-03-20T03:27:24;9.80;99.90
14884;DHT22;7534;50.762;7.000;2023-03-20T03:29:59;9.90;99.90
14884;DHT22;7534;50.762;7.000;2023-03-20T03:32:37;9.90;99.90
14884;DHT22;7534;50.762;7.000;2023-03-20T03:35:15;9.90;99.90
14884;DHT22;7534;50.762;7.000;2023-03-20T03:40:29;10.10;99.90
14884;DHT22;7534;50.762;7.000;2023-03-20T03:45:58;10.10;99.90
14884;DHT22;7534;50.762;7.000;2023-03-20T03:48:34;10.10;99.90
14884;DHT22;7534;50.762;7.000;2023-03-20T03:51:08;10.20;99.90
14884;DHT22;7534;50.762;7.000;2023-03-20T03:53:43;10.20;99.90
14884;DHT22;7534;50.762;7.000;2023-03-20T03:56:18;10.00;99.90
14884;DHT22;7534;50.762;7.000;2023-03-20T03:58:51;9.90;99.90
14884;DHT22;7534;50.762;7.000;2023-03-20T04:01:25;9.80;99.90
14884;DHT22;7534;50.762;7.000;2023-03-20T04:03:55;9.80;99.90
14884;DHT22;7534;50.762;7.000;2023-03-20T04:06:28;9.80;99.90
14884;DHT22;7534;50.762;7.000;2023-03-20T04:08:54;9.70;99.90
14884;DHT22;7534;50.762;7.000;2023-03-20T04:11:22;9.70;99.90
14884;DHT22;7534;50.762;7.000;2023-03-20T04:13:50;9.70;99.90
14884;DHT22;7534;50.762;7.000;2023-03-20T04:16:18;9.70;99.90
14884;DHT22;7534;50.762;7.000;2023-03-20T04:18:45;9.70;99.90
14884;DHT22;7534;50.762;7.000;2023-03-20T04:21:11;9.70;99.90
14884;DHT22;7534;50.762;7.000;2023-03-20T04:23:37;9.70;99.90
14884;DHT22;7534;50.762;7.000;2023-03-20T04:26:05;9.80;99.90
14884;DHT22;7534;50.762;7.000;2023-03-20T04:28:32;9.80;99.90
14884;DHT22;7534;50.762;7.000;2023-03-20T04:30:59;9.70;99.90
14884;DHT22;7534;50.762;7.000;2023-03-20T04:33:26;9.70;99.90
14884;DHT22;7534;50.762;7.000;2023-03-20T04:35:53;9.70;99.90
14884;DHT22;7534;50.762;7.000;2023-03-20T04:38:20;9.70;99.90
14884;DHT22;7534;50.762;7.000;2023-03-20T04:40:47;9.60;99.90
14884;DHT22;7534;50.762;7.000;2023-03-20T04:43:13;9.50;99.90
14884;DHT22;7534;50.762;7.000;2023-03-20T04:45:40;9.40;99.90
14884;DHT22;7534;50.762;7.000;2023-03-20T04:48:06;9.50;99.90
14884;DHT22;7534;50.762;7.000;2023-03-20T04:50:32;9.40;99.90
14884;DHT22;7534;50.762;7.000;2023-03-20T04:52:58;9.50;99.90
14884;DHT22;7534;50.762;7.000;2023-03-20T04:55:24;9.40;99.90
14884;DHT22;7534;50.762;7.000;2023-03-20T04:57:50;9.40;99.90
14884;DHT22;7534;50.762;7.000;2023-03-20T05:00:16;9.30;99.90
14884;DHT22;7534;50.762;7.000;2023-03-20T05:02:43;9.20;99.90
14884;DHT22;7534;50.762;7.000;2023-03-20T05:05:09;9.20;99.90
14884;DHT22;7534;50.762;7.000;2023-03-20T05:07:34;9.10;99.90
14884;DHT22;7534;50.762;7.000;2023-03-20T05:10:01;9.10;99.90
14884;DHT22;7534;50.762;7.000;2023-03-20T05:12:28;9.10;99.90
14884;DHT22;7534;50.762;7.000;2023-03-20T05:14:53;9.10;99.90
14884;DHT22;7534;50.762;7.000;2023-03-20T05:17:20;9.00;99.90
14884;DHT22;7534;50.762;7.000;2023-03-20T05:19:47;9.00;99.90
14884;DHT22;7534;50.762;7.000;2023-03-20T05:22:14;9.00;99.90
14884;DHT22;7534;50.762;7.000;2023-03-20T05:24:41;9.00;99.90
14884;DHT22;7534;50.762;7.000;2023-03-20T05:27:06;8.90;99.90
14884;DHT22;7534;50.762;7.000;2023-03-20T05:29:32;8.90;99.90
14884;DHT22;7534;50.762;7.000;2023-03-20T05:31:58;8.80;99.90
14884;DHT22;7534;50.762;7.000;2023-03-20T05:34:24;8.80;99.90
14884;DHT22;7534;50.762;7.000;2023-03-20T05:36:49;8.80;99.90
14884;DHT22;7534;50.762;7.000;2023-03-20T05:39:15;8.70;99.90
14884;DHT22;7534;50.762;7.000;2023-03-20T05:41:42;8.70;99.90
14884;DHT22;7534;50.762;7.000;2023-03-20T05:44:08;8.60;99.90
14884;DHT22;7534;50.762;7.000;2023-03-20T05:46:33;8.60;99.90
14884;DHT22;7534;50.762;7.000;2023-03-20T05:48:59;8.50;99.90
14884;DHT22;7534;50.762;7.000;2023-03-20T05:51:26;8.50;99.90
14884;DHT22;7534;50.762;7.000;2023-03-20T05:53:52;8.50;99.90
14884;DHT22;7534;50.762;7.000;2023-03-20T05:56:17;8.50;99.90
14884;DHT22;7534;50.762;7.000;2023-03-20T05:58:43;8.50;99.90
14884;DHT22;7534;50.762;7.000;2023-03-20T06:01:09;8.60;99.90
14884;DHT22;7534;50.762;7.000;2023-03-20T06:03:34;8.70;99.90
14884;DHT22;7534;50.762;7.000;2023-03-20T06:06:01;8.70;99.90
14884;DHT22;7534;50.762;7.000;2023-03-20T06:08:27;8.70;99.90
14884;DHT22;7534;50.762;7.000;2023-03-20T06:10:54;8.70;99.90
14884;DHT22;7534;50.762;7.000;2023-03-20T06:13:20;8.90;99.90
14884;DHT22;7534;50.762;7.000;2023-03-20T06:15:46;8.90;99.90
14884;DHT22;7534;50.762;7.000;2023-03-20T06:18:12;9.00;99.90
14884;DHT22;7534;50.762;7.000;2023-03-20T06:20:37;9.10;99.90
14884;DHT22;7534;50.762;7.000;2023-03-20T06:23:03;9.10;99.90
14884;DHT22;7534;50.762;7.000;2023-03-20T06:25:29;9.20;99.90
14884;DHT22;7534;50.762;7.000;2023-03-20T06:27:54;9.30;99.90
14884;DHT22;7534;50.762;7.000;2023-03-20T06:30:20;9.30;99.90
14884;DHT22;7534;50.762;7.000;2023-03-20T06:32:46;9.30;99.90
14884;DHT22;7534;50.762;7.000;2023-03-20T06:35:12;9.40;99.90
14884;DHT22;7534;50.762;7.000;2023-03-20T06:37:38;9.60;99.90
14884;DHT22;7534;50.762;7.000;2023-03-20T06:40:05;9.70;99.90
14884;DHT22;7534;50.762;7.000;2023-03-20T06:42:32;9.90;99.90
14884;DHT22;7534;50.762;7.000;2023-03-20T06:44:58;10.00;99.90
14884;DHT22;7534;50.762;7.000;2023-03-20T06:47:23;10.10;99.90
14884;DHT22;7534;50.762;7.000;2023-03-20T06:49:49;10.40;99.90
14884;DHT22;7534;50.762;7.000;2023-03-20T06:52:16;10.60;99.90
14884;DHT22;7534;50.762;7.000;2023-03-20T06:54:46;11.10;99.90
14884;DHT22;7534;50.762;7.000;2023-03-20T06:57:12;11.40;99.90
14884;DHT22;7534;50.762;7.000;2023-03-20T06:59:37;11.60;99.90
14884;DHT22;7534;50.762;7.000;2023-03-20T07:02:03;11.70;99.90
14884;DHT22;7534;50.762;7.000;2023-03-20T07:04:30;11.80;99.90
14884;DHT22;7534;50.762;7.000;2023-03-20T07:06:56;11.90;99.90
14884;DHT22;7534;50.762;7.000;2023-03-20T07:09:22;11.80;99.90
14884;DHT22;7534;50.762;7.000;2023-03-20T07:11:48;11.80;99.90
14884;DHT22;7534;50.762;7.000;2023-03-20T07:14:14;11.70;99.90
14884;DHT22;7534;50.762;7.000;2023-03-20T07:16:40;11.60;99.90
14884;DHT22;7534;50.762;7.000;2023-03-20T07:19:12;11.70;99.90
14884;DHT22;7534;50.762;7.000;2023-03-20T07:21:38;11.60;99.90
14884;DHT22;7534;50.762;7.000;2023-03-20T07:24:04;11.50;99.90
14884;DHT22;7534;50.762;7.000;2023-03-20T07:26:31;11.70;99.90
14884;DHT22;7534;50.762;7.000;2023-03-20T07:28:58;12.00;99.90
14884;DHT22;7534;50.762;7.000;2023-03-20T07:31:27;12.30;99.90
14884;DHT22;7534;50.762;7.000;2023-03-20T07:34:03;12.70;99.80
14884;DHT22;7534;50.762;7.000;2023-03-20T07:36:29;13.30;99.10
14884;DHT22;7534;50.762;7.000;2023-03-20T07:38:58;13.50;97.50
14884;DHT22;7534;50.762;7.000;2023-03-20T07:41:25;13.30;97.30
14884;DHT22;7534;50.762;7.000;2023-03-20T07:43:52;13.60;97.90
14884;DHT22;7534;50.762;7.000;2023-03-20T07:46:18;13.70;97.30
14884;DHT22;7534;50.762;7.000;2023-03-20T07:48:44;13.20;96.60
14884;DHT22;7534;50.762;7.000;2023-03-20T07:51:13;12.90;98.10
14884;DHT22;7534;50.762;7.000;2023-03-20T07:53:39;12.80;98.10
14884;DHT22;7534;50.762;7.000;2023-03-20T07:56:05;12.50;97.60
14884;DHT22;7534;50.762;7.000;2023-03-20T07:58:39;12.50;98.40
14884;DHT22;7534;50.762;7.000;2023-03-20T08:01:06;12.60;98.60
14884;DHT22;7534;50.762;7.000;2023-03-20T08:03:32;12.60;98.80
14884;DHT22;7534;50.762;7.000;2023-03-20T08:05:58;12.80;98.80
14884;DHT22;7534;50.762;7.000;2023-03-20T08:08:24;12.80;97.70
14884;DHT22;7534;50.762;7.000;2023-03-20T08:10:50;12.60;98.00
14884;DHT22;7534;50.762;7.000;2023-03-20T08:13:15;12.50;98.70
14884;DHT22;7534;50.762;7.000;2023-03-20T08:15:41;12.60;98.90
14884;DHT22;7534;50.762;7.000;2023-03-20T08:18:07;12.70;98.60
14884;DHT22;7534;50.762;7.000;2023-03-20T08:20:33;12.70;98.30
14884;DHT22;7534;50.762;7.000;2023-03-20T08:22:58;12.80;98.50
14884;DHT22;7534;50.762;7.000;2023-03-20T08:25:24;12.60;97.90
14884;DHT22;7534;50.762;7.000;2023-03-20T08:27:50;12.60;97.60
14884;DHT22;7534;50.762;7.000;2023-03-20T08:30:16;12.50;97.90
14884;DHT22;7534;50.762;7.000;2023-03-20T08:32:42;12.60;97.00
14884;DHT22;7534;50.762;7.000;2023-03-20T08:35:08;12.50;97.00
14884;DHT22;7534;50.762;7.000;2023-03-20T08:37:34;12.40;97.00
14884;DHT22;7534;50.762;7.000;2023-03-20T08:40:02;12.50;96.80
14884;DHT22;7534;50.762;7.000;2023-03-20T08:42:29;12.60;97.10
14884;DHT22;7534;50.762;7.000;2023-03-20T08:44:55;12.80;96.50
14884;DHT22;7534;50.762;7.000;2023-03-20T08:47:21;13.10;96.80
14884;DHT22;7534;50.762;7.000;2023-03-20T08:49:46;13.20;95.60
14884;DHT22;7534;50.762;7.000;2023-03-20T08:52:12;13.30;95.40
14884;DHT22;7534;50.762;7.000;2023-03-20T08:54:38;13.40;95.40
14884;DHT22;7534;50.762;7.000;2023-03-20T08:57:04;13.50;94.10
14884;DHT22;7534;50.762;7.000;2023-03-20T08:59:29;13.30;93.80
14884;DHT22;7534;50.762;7.000;2023-03-20T09:01:55;13.50;94.30
14884;DHT22;7534;50.762;7.000;2023-03-20T09:04:21;13.70;94.10
14884;DHT22;7534;50.762;7.000;2023-03-20T09:06:46;13.60;93.10
14884;DHT22;7534;50.762;7.000;2023-03-20T09:09:14;13.50;93.70
14884;DHT22;7534;50.762;7.000;2023-03-20T09:11:40;13.70;93.70
14884;DHT22;7534;50.762;7.000;2023-03-20T09:14:06;14.00;93.20
14884;DHT22;7534;50.762;7.000;2023-03-20T09:16:32;14.30;92.90
14884;DHT22;7534;50.762;7.000;2023-03-20T09:18:57;14.40;91.90
14884;DHT22;7534;50.762;7.000;2023-03-20T09:21:23;14.30;91.90
14884;DHT22;7534;50.762;7.000;2023-03-20T09:23:49;14.40;91.80
14884;DHT22;7534;50.762;7.000;2023-03-20T09:26:15;14.40;90.90
14884;DHT22;7534;50.762;7.000;2023-03-20T09:28:41;14.50;91.70
14884;DHT22;7534;50.762;7.000;2023-03-20T09:31:06;14.80;91.70
14884;DHT22;7534;50.762;7.000;2023-03-20T09:33:32;15.00;90.90
14884;DHT22;7534;50.762;7.000;2023-03-20T09:35:58;14.60;90.80
14884;DHT22;7534;50.762;7.000;2023-03-20T09:38:24;14.70;91.10
14884;DHT22;7534;50.762;7.000;2023-03-20T09:41:00;14.80;91.20
14884;DHT22;7534;50.762;7.000;2023-03-20T09:43:53;14.30;90.60
14884;DHT22;7534;50.762;7.000;2023-03-20T09:46:54;14.20;90.90
14884;DHT22;7534;50.762;7.000;2023-03-20T09:49:56;14.20;91.70
14884;DHT22;7534;50.762;7.000;2023-03-20T09:52:29;14.70;91.70
14884;DHT22;7534;50.762;7.000;2023-03-20T09:55:03;15.00;91.00
14884;DHT22;7534;50.762;7.000;2023-03-20T09:57:40;15.00;91.00
14884;DHT22;7534;50.762;7.000;2023-03-20T10:02:53;15.30;90.30
14884;DHT22;7534;50.762;7.000;2023-03-20T10:05:53;15.40;88.60
14884;DHT22;7534;50.762;7.000;2023-03-20T10:08:33;15.30;86.80
14884;DHT22;7534;50.762;7.000;2023-03-20T10:16:57;14.40;90.60
14884;DHT22;7534;50.762;7.000;2023-03-20T10:19:43;14.50;90.70
14884;DHT22;7534;50.762;7.000;2023-03-20T10:22:28;14.80;90.20
14884;DHT22;7534;50.762;7.000;2023-03-20T10:27:45;14.90;90.20
14884;DHT22;7534;50.762;7.000;2023-03-20T10:30:46;15.00;90.40
14884;DHT22;7534;50.762;7.000;2023-03-20T10:33:51;15.00;88.10
14884;DHT22;7534;50.762;7.000;2023-03-20T10:39:54;14.70;89.40
14884;DHT22;7534;50.762;7.000;2023-03-20T10:42:37;14.80;87.90
14884;DHT22;7534;50.762;7.000;2023-03-20T10:48:46;15.10;85.40
14884;DHT22;7534;50.762;7.000;2023-03-20T10:51:19;14.60;87.50
14884;DHT22;7534;50.762;7.000;2023-03-20T10:53:55;14.70;87.10
14884;DHT22;7534;50.762;7.000;2023-03-20T10:56:35;14.50;87.50
14884;DHT22;7534;50.762;7.000;2023-03-20T10:59:09;14.50;88.40
14884;DHT22;7534;50.762;7.000;2023-03-20T11:01:48;14.60;88.80
14884;DHT22;7534;50.762;7.000;2023-03-20T11:04:15;13.80;87.60
14884;DHT22;7534;50.762;7.000;2023-03-20T11:09:45;13.60;90.20
14884;DHT22;7534;50.762;7.000;2023-03-20T11:12:44;13.50;90.10
14884;DHT22;7534;50.762;7.000;2023-03-20T11:15:23;13.70;91.10
14884;DHT22;7534;50.762;7.000;2023-03-20T11:17:56;13.90;90.20
14884;DHT22;7534;50.762;7.000;2023-03-20T11:20:31;14.00;90.20
14884;DHT22;7534;50.762;7.000;2023-03-20T11:23:03;13.80;90.10
14884;DHT22;7534;50.762;7.000;2023-03-20T11:25:38;13.80;89.80
14884;DHT22;7534;50.762;7.000;2023-03-20T11:28:20;14.00;89.00
14884;DHT22;7534;50.762;7.000;2023-03-20T11:30:49;14.20;87.00
14884;DHT22;7534;50.762;7.000;2023-03-20T11:33:21;14.20;88.10
14884;DHT22;7534;50.762;7.000;2023-03-20T11:35:55;14.20;88.00
14884;DHT22;7534;50.762;7.000;2023-03-20T11:38:23;14.30;87.60
14884;DHT22;7534;50.762;7.000;2023-03-20T11:40:50;14.30;88.50
14884;DHT22;7534;50.762;7.000;2023-03-20T11:43:20;14.10;85.60
14884;DHT22;7534;50.762;7.000;2023-03-20T11:45:55;13.60;83.90
14884;DHT22;7534;50.762;7.000;2023-03-20T11:48:43;13.10;86.00
14884;DHT22;7534;50.762;7.000;2023-03-20T11:51:15;12.90;86.00
14884;DHT22;7534;50.762;7.000;2023-03-20T11:56:24;12.90;87.30
14884;DHT22;7534;50.762;7.000;2023-03-20T11:59:03;13.10;87.40
14884;DHT22;7534;50.762;7.000;2023-03-20T12:01:43;13.30;85.50
14884;DHT22;7534;50.762;7.000;2023-03-20T12:04:16;13.50;86.60
14884;DHT22;7534;50.762;7.000;2023-03-20T12:09:34;13.70;84.90
14884;DHT22;7534;50.762;7.000;2023-03-20T12:12:22;13.70;85.60
14884;DHT22;7534;50.762;7.000;2023-03-20T12:15:23;13.80;86.80
14884;DHT22;7534;50.762;7.000;2023-03-20T12:18:16;13.70;84.00
14884;DHT22;7534;50.762;7.000;2023-03-20T12:21:06;13.70;84.40
14884;DHT22;7534;50.762;7.000;2023-03-20T12:23:46;13.90;83.70
14884;DHT22;7534;50.762;7.000;2023-03-20T12:29:25;14.10;86.30
14884;DHT22;7534;50.762;7.000;2023-03-20T12:32:09;14.40;83.60
14884;DHT22;7534;50.762;7.000;2023-03-20T12:34:51;14.70;83.00
14884;DHT22;7534;50.762;7.000;2023-03-20T12:37:22;14.70;83.20
14884;DHT22;7534;50.762;7.000;2023-03-20T12:39:53;14.60;81.70
14884;DHT22;7534;50.762;7.000;2023-03-20T12:42:41;14.00;84.40
14884;DHT22;7534;50.762;7.000;2023-03-20T12:45:23;14.00;89.30
14884;DHT22;7534;50.762;7.000;2023-03-20T12:48:22;13.90;87.60
14884;DHT22;7534;50.762;7.000;2023-03-20T12:54:32;14.00;90.90
14884;DHT22;7534;50.762;7.000;2023-03-20T13:06:01;13.70;91.80
14884;DHT22;7534;50.762;7.000;2023-03-20T13:17:17;14.50;90.40
14884;DHT22;7534;50.762;7.000;2023-03-20T13:19:54;14.80;90.20
14884;DHT22;7534;50.762;7.000;2023-03-20T13:34:18;14.70;88.40
14884;DHT22;7534;50.762;7.000;2023-03-20T13:37:12;14.90;88.70
14884;DHT22;7534;50.762;7.000;2023-03-20T13:42:57;15.20;86.50
14884;DHT22;7534;50.762;7.000;2023-03-20T13:45:38;15.20;85.90
14884;DHT22;7534;50.762;7.000;2023-03-20T13:48:21;15.30;85.50
14884;DHT22;7534;50.762;7.000;2023-03-20T13:57:00;15.00;86.20
14884;DHT22;7534;50.762;7.000;2023-03-20T13:59:43;15.20;87.00
14884;DHT22;7534;50.762;7.000;2023-03-20T14:02:31;15.60;85.50
14884;DHT22;7534;50.762;7.000;2023-03-20T14:05:16;15.90;82.80
14884;DHT22;7534;50.762;7.000;2023-03-20T14:07:46;16.00;82.70
14884;DHT22;7534;50.762;7.000;2023-03-20T14:12:58;16.10;81.80
14884;DHT22;7534;50.762;7.000;2023-03-20T14:15:37;16.20;80.80
14884;DHT22;7534;50.762;7.000;2023-03-20T14:18:14;15.80;80.50
14884;DHT22;7534;50.762;7.000;2023-03-20T14:20:42;15.80;83.70
14884;DHT22;7534;50.762;7.000;2023-03-20T14:23:17;15.60;83.00
14884;DHT22;7534;50.762;7.000;2023-03-20T14:25:46;15.70;83.40
14884;DHT22;7534;50.762;7.000;2023-03-20T14:30:47;16.00;81.40
14884;DHT22;7534;50.762;7.000;2023-03-20T14:36:15;16.30;82.30
14884;DHT22;7534;50.762;7.000;2023-03-20T14:39:18;16.00;82.80
14884;DHT22;7534;50.762;7.000;2023-03-20T14:45:27;15.50;84.30
14884;DHT22;7534;50.762;7.000;2023-03-20T14:48:08;15.20;82.80
14884;DHT22;7534;50.762;7.000;2023-03-20T14:53:39;15.00;83.20
14884;DHT22;7534;50.762;7.000;2023-03-20T14:56:13;15.10;83.60
14884;DHT22;7534;50.762;7.000;2023-03-20T14:58:50;15.20;84.90
14884;DHT22;7534;50.762;7.000;2023-03-20T15:03:55;15.00;85.90
14884;DHT22;7534;50.762;7.000;2023-03-20T15:06:26;15.10;86.10
14884;DHT22;7534;50.762;7.000;2023-03-20T15:08:59;15.10;87.20
14884;DHT22;7534;50.762;7.000;2023-03-20T15:11:32;15.10;86.70
14884;DHT22;7534;50.762;7.000;2023-03-20T15:14:00;15.20;86.40
14884;DHT22;7534;50.762;7.000;2023-03-20T15:16:33;15.20;87.30
14884;DHT22;7534;50.762;7.000;2023-03-20T15:19:00;15.40;88.00
14884;DHT22;7534;50.762;7.000;2023-03-20T15:21:38;15.10;85.30
14884;DHT22;7534;50.762;7.000;2023-03-20T15:24:06;15.30;87.50
14884;DHT22;7534;50.762;7.000;2023-03-20T15:26:34;15.30;86.80
14884;DHT22;7534;50.762;7.000;2023-03-20T15:29:03;15.40;86.10
14884;DHT22;7534;50.762;7.000;2023-03-20T15:31:33;15.20;84.90
14884;DHT22;7534;50.762;7.000;2023-03-20T15:34:07;15.20;86.10
14884;DHT22;7534;50.762;7.000;2023-03-20T15:36:39;15.20;86.30
14884;DHT22;7534;50.762;7.000;2023-03-20T15:39:20;15.30;85.40
14884;DHT22;7534;50.762;7.000;2023-03-20T15:42:00;15.40;85.80
14884;DHT22;7534;50.762;7.000;2023-03-20T15:44:38;15.50;85.50
14884;DHT22;7534;50.762;7.000;2023-03-20T15:49:40;15.80;83.20
14884;DHT22;7534;50.762;7.000;2023-03-20T15:52:18;16.00;82.50
14884;DHT22;7534;50.762;7.000;2023-03-20T15:54:58;16.30;84.20
14884;DHT22;7534;50.762;7.000;2023-03-20T15:57:35;16.40;82.40
14884;DHT22;7534;50.762;7.000;2023-03-20T16:00:12;16.10;82.10
14884;DHT22;7534;50.762;7.000;2023-03-20T16:02:44;16.00;84.10
14884;DHT22;7534;50.762;7.000;2023-03-20T16:05:13;15.90;81.30
14884;DHT22;7534;50.762;7.000;2023-03-20T16:07:40;15.50;81.00
14884;DHT22;7534;50.762;7.000;2023-03-20T16:10:30;15.30;81.00
14884;DHT22;7534;50.762;7.000;2023-03-20T16:13:03;15.10;83.10
14884;DHT22;7534;50.762;7.000;2023-03-20T16:15:32;15.10;81.20
14884;DHT22;7534;50.762;7.000;2023-03-20T16:18:01;15.20;82.90
14884;DHT22;7534;50.762;7.000;2023-03-20T16:20:33;15.10;79.30
14884;DHT22;7534;50.762;7.000;2023-03-20T16:23:06;15.10;80.80
14884;DHT22;7534;50.762;7.000;2023-03-20T16:25:35;15.00;81.80
14884;DHT22;7534;50.762;7.000;2023-03-20T16:28:03;15.00;81.00
14884;DHT22;7534;50.762;7.000;2023-03-20T16:30:33;15.10;83.00
14884;DHT22;7534;50.762;7.000;2023-03-20T16:33:13;15.10;83.10
14884;DHT22;7534;50.762;7.000;2023-03-20T16:35:49;15.20;83.00
14884;DHT22;7534;50.762;7.000;2023-03-20T16:40:43;15.00;84.20
14884;DHT22;7534;50.762;7.000;2023-03-20T16:43:24;15.00;85.70
14884;DHT22;7534;50.762;7.000;2023-03-20T16:45:56;14.80;87.60
14884;DHT22;7534;50.762;7.000;2023-03-20T16:48:32;14.60;86.80
14884;DHT22;7534;50.762;7.000;2023-03-20T16:53:46;14.40;89.10
14884;DHT22;7534;50.762;7.000;2023-03-20T16:56:21;14.10;89.70
14884;DHT22;7534;50.762;7.000;2023-03-20T16:59:07;14.00;90.00
14884;DHT22;7534;50.762;7.000;2023-03-20T17:01:34;13.90;90.70
14884;DHT22;7534;50.762;7.000;2023-03-20T17:04:35;13.80;90.90
14884;DHT22;7534;50.762;7.000;2023-03-20T17:07:13;13.80;91.20
14884;DHT22;7534;50.762;7.000;2023-03-20T17:12:26;13.90;91.20
14884;DHT22;7534;50.762;7.000;2023-03-20T17:14:56;13.90;91.10
14884;DHT22;7534;50.762;7.000;2023-03-20T17:17:23;13.80;91.10
14884;DHT22;7534;50.762;7.000;2023-03-20T17:19:50;13.80;90.90
14884;DHT22;7534;50.762;7.000;2023-03-20T17:22:20;13.80;91.10
14884;DHT22;7534;50.762;7.000;2023-03-20T17:24:48;13.80;91.20
14884;DHT22;7534;50.762;7.000;2023-03-20T17:27:15;13.80;91.20
14884;DHT22;7534;50.762;7.000;2023-03-20T17:29:42;13.70;91.30
14884;DHT22;7534;50.762;7.000;2023-03-20T17:32:10;13.70;91.40
14884;DHT22;7534;50.762;7.000;2023-03-20T17:34:43;13.60;91.40
14884;DHT22;7534;50.762;7.000;2023-03-20T17:37:20;13.60;91.50
14884;DHT22;7534;50.762;7.000;2023-03-20T17:39:47;13.60;91.70
14884;DHT22;7534;50.762;7.000;2023-03-20T17:42:21;13.50;91.80
14884;DHT22;7534;50.762;7.000;2023-03-20T17:44:51;13.40;91.80
14884;DHT22;7534;50.762;7.000;2023-03-20T17:47:21;13.20;91.50
14884;DHT22;7534;50.762;7.000;2023-03-20T17:49:49;13.20;91.90
14884;DHT22;7534;50.762;7.000;2023-03-20T17:52:22;13.20;92.10
14884;DHT22;7534;50.762;7.000;2023-03-20T17:54:50;13.10;92.40
14884;DHT22;7534;50.762;7.000;2023-03-20T17:57:32;13.10;92.30
14884;DHT22;7534;50.762;7.000;2023-03-20T18:00:00;13.10;92.80
14884;DHT22;7534;50.762;7.000;2023-03-20T18:02:34;13.00;93.00
14884;DHT22;7534;50.762;7.000;2023-03-20T18:05:00;12.90;93.30
14884;DHT22;7534;50.762;7.000;2023-03-20T18:07:26;12.90;93.50
14884;DHT22;7534;50.762;7.000;2023-03-20T18:10:30;12.80;93.50
14884;DHT22;7534;50.762;7.000;2023-03-20T18:13:38;12.80;93.90
14884;DHT22;7534;50.762;7.000;2023-03-20T18:16:05;12.70;94.10
14884;DHT22;7534;50.762;7.000;2023-03-20T18:18:31;12.70;93.70
14884;DHT22;7534;50.762;7.000;2023-03-20T18:20:56;12.60;93.80
14884;DHT22;7534;50.762;7.000;2023-03-20T18:23:23;12.50;94.00
14884;DHT22;7534;50.762;7.000;2023-03-20T18:25:49;12.50;94.10